Погода Модрикана 2 недели

Биельина, Босния и Герцеговина

25 июля-06 августа
  • 25июля
    Сегодня
    +16°
    +27°
    Ясно и безоблачно
    ВремяПогодаТемператураВлажностьДавлениеВетер, м/сВероятность осадков
    02:00Ясно и безоблачно+20°C65 %751 мм2.5 м/с2 %
    05:00Ясно и безоблачно+17°C72 %751 мм1.9 м/с2 %
    08:00Ясно и безоблачно+21°C65 %752 мм2.5 м/с2 %
    11:00Практически безоблачно+24°C49 %752 мм2.5 м/с3 %
    14:00Ясно и безоблачно+27°C43 %751 мм3.0 м/с8 %
    17:00Практически безоблачно+27°C43 %750 мм3.4 м/с5 %
    20:00Ясно и безоблачно+23°C63 %750 мм1.2 м/с2 %
    23:00Ясно и безоблачно+19°C63 %751 мм1.8 м/с2 %
  • 26июля
    Пятница
    +17°
    +29°
    Небольшая облачность
    ВремяПогодаТемператураВлажностьДавлениеВетер, м/сВероятность осадков
    02:00Ясно и безоблачно+18°C71 %751 мм1.5 м/с2 %
    05:00Небольшая облачность+16°C78 %751 мм1.7 м/с2 %
    08:00Ясно и безоблачно+21°C62 %751 мм1.9 м/с2 %
    11:00Ясно и безоблачно+26°C41 %752 мм2.0 м/с2 %
    14:00Небольшая облачность+28°C36 %751 мм2.5 м/с2 %
    17:00Ясно и безоблачно+29°C34 %751 мм1.8 м/с2 %
    20:00Ясно и безоблачно+24°C56 %751 мм1.4 м/с2 %
    23:00Ясно и безоблачно+20°C57 %752 мм1.6 м/с2 %
  • 27июля
    Суббота
    +19°
    +33°
    Ясно и безоблачно
    ВремяПогодаТемператураВлажностьДавлениеВетер, м/сВероятность осадков
    02:00Ясно и безоблачно+19°C67 %752 мм1.4 м/с2 %
    05:00Ясно и безоблачно+17°C78 %752 мм0.8 м/с2 %
    08:00Ясно и безоблачно+23°C63 %753 мм1.7 м/с2 %
    11:00Ясно и безоблачно+29°C36 %754 мм2.1 м/с2 %
    14:00Ясно и безоблачно+32°C30 %754 мм2.5 м/с2 %
    17:00Ясно и безоблачно+33°C31 %753 мм2.4 м/с2 %
    20:00Ясно и безоблачно+28°C40 %753 мм2.0 м/с2 %
    23:00Ясно и безоблачно+24°C48 %754 мм2.3 м/с2 %
  • 28июля
    Воскресенье
    +20°
    +36°
    Ясно и безоблачно
    ВремяПогодаТемператураВлажностьДавлениеВетер, м/сВероятность осадков
    02:00Ясно и безоблачно+21°C62 %754 мм1.7 м/с2 %
    05:00Ясно и безоблачно+19°C68 %754 мм1.6 м/с2 %
    08:00Ясно и безоблачно+25°C59 %755 мм1.7 м/с2 %
    11:00Ясно и безоблачно+32°C36 %755 мм2.0 м/с2 %
    14:00Ясно и безоблачно+36°C26 %754 мм2.5 м/с2 %
    17:00Ясно и безоблачно+36°C24 %753 мм0.8 м/с2 %
    20:00Ясно и безоблачно+30°C43 %753 мм0.2 м/с2 %
    23:00Ясно и безоблачно+26°C41 %753 мм1.5 м/с2 %
Мы используем cookies
Соглашаюсь